sensor_id;sensor_type;location;lat;lon;timestamp;temperature;humidity
35445;DHT22;21562;49.476;6.086;2023-05-16T00:02:16;13.40;99.90
35445;DHT22;21562;49.476;6.086;2023-05-16T00:04:42;13.20;99.90
35445;DHT22;21562;49.476;6.086;2023-05-16T00:07:08;13.30;99.90
35445;DHT22;21562;49.476;6.086;2023-05-16T00:09:33;13.40;99.90
35445;DHT22;21562;49.476;6.086;2023-05-16T00:11:59;13.60;99.90
35445;DHT22;21562;49.476;6.086;2023-05-16T00:14:25;13.70;99.90
35445;DHT22;21562;49.476;6.086;2023-05-16T00:16:52;13.80;99.90
35445;DHT22;21562;49.476;6.086;2023-05-16T00:19:18;13.90;99.90
35445;DHT22;21562;49.476;6.086;2023-05-16T00:21:45;13.90;99.90
35445;DHT22;21562;49.476;6.086;2023-05-16T00:24:10;13.80;99.90
35445;DHT22;21562;49.476;6.086;2023-05-16T00:26:36;13.50;99.90
35445;DHT22;21562;49.476;6.086;2023-05-16T00:29:02;13.50;99.90
35445;DHT22;21562;49.476;6.086;2023-05-16T00:31:27;13.60;99.90
35445;DHT22;21562;49.476;6.086;2023-05-16T00:33:53;13.60;99.90
35445;DHT22;21562;49.476;6.086;2023-05-16T00:36:19;13.70;99.90
35445;DHT22;21562;49.476;6.086;2023-05-16T00:38:46;13.50;99.90
35445;DHT22;21562;49.476;6.086;2023-05-16T00:41:11;13.30;99.90
35445;DHT22;21562;49.476;6.086;2023-05-16T00:43:37;13.10;99.90
35445;DHT22;21562;49.476;6.086;2023-05-16T00:46:04;13.30;99.90
35445;DHT22;21562;49.476;6.086;2023-05-16T00:48:30;13.30;99.90
35445;DHT22;21562;49.476;6.086;2023-05-16T00:50:56;13.30;99.90
35445;DHT22;21562;49.476;6.086;2023-05-16T00:53:22;13.50;99.90
35445;DHT22;21562;49.476;6.086;2023-05-16T00:55:49;13.50;99.90
35445;DHT22;21562;49.476;6.086;2023-05-16T00:58:17;13.50;99.90
35445;DHT22;21562;49.476;6.086;2023-05-16T01:00:43;13.50;99.90
35445;DHT22;21562;49.476;6.086;2023-05-16T01:03:11;13.50;99.90
35445;DHT22;21562;49.476;6.086;2023-05-16T01:05:36;13.00;99.90
35445;DHT22;21562;49.476;6.086;2023-05-16T01:08:02;13.00;99.90
35445;DHT22;21562;49.476;6.086;2023-05-16T01:10:37;13.00;99.90
35445;DHT22;21562;49.476;6.086;2023-05-16T01:13:30;13.00;99.90
35445;DHT22;21562;49.476;6.086;2023-05-16T01:18:56;13.10;99.90
35445;DHT22;21562;49.476;6.086;2023-05-16T01:21:43;13.10;99.90
35445;DHT22;21562;49.476;6.086;2023-05-16T01:24:20;12.90;99.90
35445;DHT22;21562;49.476;6.086;2023-05-16T01:26:47;13.00;99.90
35445;DHT22;21562;49.476;6.086;2023-05-16T01:29:14;13.00;99.90
35445;DHT22;21562;49.476;6.086;2023-05-16T01:31:40;12.90;99.90
35445;DHT22;21562;49.476;6.086;2023-05-16T01:34:05;12.90;99.90
35445;DHT22;21562;49.476;6.086;2023-05-16T01:36:47;12.90;99.90
35445;DHT22;21562;49.476;6.086;2023-05-16T01:39:32;12.80;99.90
35445;DHT22;21562;49.476;6.086;2023-05-16T01:42:05;12.70;99.90
35445;DHT22;21562;49.476;6.086;2023-05-16T01:44:53;12.90;99.90
35445;DHT22;21562;49.476;6.086;2023-05-16T01:47:22;12.90;99.90
35445;DHT22;21562;49.476;6.086;2023-05-16T01:50:16;13.00;99.90
35445;DHT22;21562;49.476;6.086;2023-05-16T01:52:54;13.00;99.90
35445;DHT22;21562;49.476;6.086;2023-05-16T01:55:43;13.00;99.90
35445;DHT22;21562;49.476;6.086;2023-05-16T01:58:10;13.00;99.90
35445;DHT22;21562;49.476;6.086;2023-05-16T02:00:36;12.60;99.90
35445;DHT22;21562;49.476;6.086;2023-05-16T02:03:02;11.90;99.90
35445;DHT22;21562;49.476;6.086;2023-05-16T02:05:28;11.60;99.90
35445;DHT22;21562;49.476;6.086;2023-05-16T02:07:53;12.00;99.90
35445;DHT22;21562;49.476;6.086;2023-05-16T02:10:19;11.90;99.90
35445;DHT22;21562;49.476;6.086;2023-05-16T02:12:45;12.10;99.90
35445;DHT22;21562;49.476;6.086;2023-05-16T02:15:11;12.30;99.90
35445;DHT22;21562;49.476;6.086;2023-05-16T02:17:36;12.30;99.90
35445;DHT22;21562;49.476;6.086;2023-05-16T02:20:03;12.30;99.90
35445;DHT22;21562;49.476;6.086;2023-05-16T02:22:32;12.30;99.90
35445;DHT22;21562;49.476;6.086;2023-05-16T02:24:59;12.50;99.90
35445;DHT22;21562;49.476;6.086;2023-05-16T02:27:24;12.40;99.90
35445;DHT22;21562;49.476;6.086;2023-05-16T02:29:50;12.30;99.90
35445;DHT22;21562;49.476;6.086;2023-05-16T02:32:16;12.30;99.90
35445;DHT22;21562;49.476;6.086;2023-05-16T02:34:41;12.30;99.90
35445;DHT22;21562;49.476;6.086;2023-05-16T02:37:07;12.40;99.90
35445;DHT22;21562;49.476;6.086;2023-05-16T02:39:33;12.20;99.90
35445;DHT22;21562;49.476;6.086;2023-05-16T02:41:58;12.30;99.90
35445;DHT22;21562;49.476;6.086;2023-05-16T02:44:24;12.30;99.90
35445;DHT22;21562;49.476;6.086;2023-05-16T02:46:49;12.30;99.90
35445;DHT22;21562;49.476;6.086;2023-05-16T02:49:15;12.30;99.90
35445;DHT22;21562;49.476;6.086;2023-05-16T02:51:41;12.20;99.90
35445;DHT22;21562;49.476;6.086;2023-05-16T02:54:07;12.30;99.90
35445;DHT22;21562;49.476;6.086;2023-05-16T02:56:34;12.30;99.90
35445;DHT22;21562;49.476;6.086;2023-05-16T02:59:00;12.60;99.90
35445;DHT22;21562;49.476;6.086;2023-05-16T03:01:26;12.70;99.90
35445;DHT22;21562;49.476;6.086;2023-05-16T03:03:51;12.60;99.90
35445;DHT22;21562;49.476;6.086;2023-05-16T03:06:17;12.40;99.90
35445;DHT22;21562;49.476;6.086;2023-05-16T03:08:43;12.40;99.90
35445;DHT22;21562;49.476;6.086;2023-05-16T03:11:08;12.50;99.90
35445;DHT22;21562;49.476;6.086;2023-05-16T03:13:34;12.70;99.90
35445;DHT22;21562;49.476;6.086;2023-05-16T03:18:44;12.70;99.90
35445;DHT22;21562;49.476;6.086;2023-05-16T03:21:09;12.70;99.90
35445;DHT22;21562;49.476;6.086;2023-05-16T03:23:35;12.60;99.90
35445;DHT22;21562;49.476;6.086;2023-05-16T03:26:00;12.70;99.90
35445;DHT22;21562;49.476;6.086;2023-05-16T03:28:26;12.80;99.90
35445;DHT22;21562;49.476;6.086;2023-05-16T03:30:52;12.80;99.90
35445;DHT22;21562;49.476;6.086;2023-05-16T03:33:18;12.60;99.90
35445;DHT22;21562;49.476;6.086;2023-05-16T03:35:43;12.40;99.90
35445;DHT22;21562;49.476;6.086;2023-05-16T03:38:09;12.40;99.90
35445;DHT22;21562;49.476;6.086;2023-05-16T03:40:35;12.50;99.90
35445;DHT22;21562;49.476;6.086;2023-05-16T03:43:01;12.50;99.90
35445;DHT22;21562;49.476;6.086;2023-05-16T03:45:29;12.30;99.90
35445;DHT22;21562;49.476;6.086;2023-05-16T03:47:54;12.10;99.90
35445;DHT22;21562;49.476;6.086;2023-05-16T03:50:20;12.20;99.90
35445;DHT22;21562;49.476;6.086;2023-05-16T03:52:46;12.20;99.90
35445;DHT22;21562;49.476;6.086;2023-05-16T03:55:11;12.10;99.90
35445;DHT22;21562;49.476;6.086;2023-05-16T03:57:39;12.10;99.90
35445;DHT22;21562;49.476;6.086;2023-05-16T04:00:07;12.10;99.90
35445;DHT22;21562;49.476;6.086;2023-05-16T04:02:33;12.10;99.90
35445;DHT22;21562;49.476;6.086;2023-05-16T04:04:58;12.00;99.90
35445;DHT22;21562;49.476;6.086;2023-05-16T04:07:24;11.90;99.90
35445;DHT22;21562;49.476;6.086;2023-05-16T04:09:50;11.90;99.90
35445;DHT22;21562;49.476;6.086;2023-05-16T04:12:16;11.80;99.90
35445;DHT22;21562;49.476;6.086;2023-05-16T04:14:42;11.70;99.90
35445;DHT22;21562;49.476;6.086;2023-05-16T04:17:08;11.80;99.90
35445;DHT22;21562;49.476;6.086;2023-05-16T04:19:34;11.70;99.90
35445;DHT22;21562;49.476;6.086;2023-05-16T04:22:00;11.70;99.90
35445;DHT22;21562;49.476;6.086;2023-05-16T04:24:26;11.50;99.90
35445;DHT22;21562;49.476;6.086;2023-05-16T04:26:53;11.30;99.90
35445;DHT22;21562;49.476;6.086;2023-05-16T04:29:19;11.30;99.90
35445;DHT22;21562;49.476;6.086;2023-05-16T04:31:46;11.50;99.90
35445;DHT22;21562;49.476;6.086;2023-05-16T04:34:11;11.50;99.90
35445;DHT22;21562;49.476;6.086;2023-05-16T04:36:37;11.70;99.90
35445;DHT22;21562;49.476;6.086;2023-05-16T04:39:03;11.90;99.90
35445;DHT22;21562;49.476;6.086;2023-05-16T04:41:29;12.00;99.90
35445;DHT22;21562;49.476;6.086;2023-05-16T04:43:54;11.90;99.90
35445;DHT22;21562;49.476;6.086;2023-05-16T04:46:20;11.70;99.90
35445;DHT22;21562;49.476;6.086;2023-05-16T04:48:46;11.60;99.90
35445;DHT22;21562;49.476;6.086;2023-05-16T04:51:11;11.40;99.90
35445;DHT22;21562;49.476;6.086;2023-05-16T04:53:37;11.60;99.90
35445;DHT22;21562;49.476;6.086;2023-05-16T04:56:03;11.70;99.90
35445;DHT22;21562;49.476;6.086;2023-05-16T04:58:30;11.60;99.90
35445;DHT22;21562;49.476;6.086;2023-05-16T05:00:56;11.60;99.90
35445;DHT22;21562;49.476;6.086;2023-05-16T05:03:22;11.60;99.90
35445;DHT22;21562;49.476;6.086;2023-05-16T05:05:48;11.60;99.90
35445;DHT22;21562;49.476;6.086;2023-05-16T05:08:13;11.70;99.90
35445;DHT22;21562;49.476;6.086;2023-05-16T05:10:39;11.60;99.90
35445;DHT22;21562;49.476;6.086;2023-05-16T05:13:05;11.70;99.90
35445;DHT22;21562;49.476;6.086;2023-05-16T05:15:31;11.40;99.90
35445;DHT22;21562;49.476;6.086;2023-05-16T05:17:56;11.10;99.90
35445;DHT22;21562;49.476;6.086;2023-05-16T05:20:22;10.90;99.90
35445;DHT22;21562;49.476;6.086;2023-05-16T05:22:47;10.80;99.90
35445;DHT22;21562;49.476;6.086;2023-05-16T05:25:13;10.80;99.90
35445;DHT22;21562;49.476;6.086;2023-05-16T05:27:39;11.00;99.90
35445;DHT22;21562;49.476;6.086;2023-05-16T05:30:05;11.30;99.90
35445;DHT22;21562;49.476;6.086;2023-05-16T05:32:31;11.40;99.90
35445;DHT22;21562;49.476;6.086;2023-05-16T05:34:57;11.40;99.90
35445;DHT22;21562;49.476;6.086;2023-05-16T05:37:23;11.40;99.90
35445;DHT22;21562;49.476;6.086;2023-05-16T05:39:48;11.20;99.90
35445;DHT22;21562;49.476;6.086;2023-05-16T05:42:15;11.10;99.90
35445;DHT22;21562;49.476;6.086;2023-05-16T05:44:40;11.10;99.90
35445;DHT22;21562;49.476;6.086;2023-05-16T05:47:06;11.30;99.90
35445;DHT22;21562;49.476;6.086;2023-05-16T05:49:33;11.40;99.90
35445;DHT22;21562;49.476;6.086;2023-05-16T05:51:58;11.40;99.90
35445;DHT22;21562;49.476;6.086;2023-05-16T05:54:24;11.40;99.90
35445;DHT22;21562;49.476;6.086;2023-05-16T05:56:50;11.40;99.90
35445;DHT22;21562;49.476;6.086;2023-05-16T05:59:16;11.40;99.90
35445;DHT22;21562;49.476;6.086;2023-05-16T06:01:41;11.60;99.90
35445;DHT22;21562;49.476;6.086;2023-05-16T06:04:09;11.40;99.90
35445;DHT22;21562;49.476;6.086;2023-05-16T06:06:36;11.40;99.90
35445;DHT22;21562;49.476;6.086;2023-05-16T06:09:02;11.40;99.90
35445;DHT22;21562;49.476;6.086;2023-05-16T06:11:27;11.30;99.90
35445;DHT22;21562;49.476;6.086;2023-05-16T06:13:53;11.40;99.90
35445;DHT22;21562;49.476;6.086;2023-05-16T06:16:22;11.40;99.90
35445;DHT22;21562;49.476;6.086;2023-05-16T06:18:48;11.20;99.90
35445;DHT22;21562;49.476;6.086;2023-05-16T06:21:13;11.10;99.90
35445;DHT22;21562;49.476;6.086;2023-05-16T06:23:39;11.30;99.90
35445;DHT22;21562;49.476;6.086;2023-05-16T06:26:05;11.40;99.90
35445;DHT22;21562;49.476;6.086;2023-05-16T06:28:31;11.50;99.90
35445;DHT22;21562;49.476;6.086;2023-05-16T06:30:56;11.60;99.90
35445;DHT22;21562;49.476;6.086;2023-05-16T06:33:22;11.40;99.90
35445;DHT22;21562;49.476;6.086;2023-05-16T06:35:47;11.30;99.90
35445;DHT22;21562;49.476;6.086;2023-05-16T06:38:17;11.50;99.90
35445;DHT22;21562;49.476;6.086;2023-05-16T06:40:43;11.60;99.90
35445;DHT22;21562;49.476;6.086;2023-05-16T06:43:09;11.60;99.90
35445;DHT22;21562;49.476;6.086;2023-05-16T06:45:36;11.70;99.90
35445;DHT22;21562;49.476;6.086;2023-05-16T06:48:02;11.50;99.90
35445;DHT22;21562;49.476;6.086;2023-05-16T06:50:27;11.50;99.90
35445;DHT22;21562;49.476;6.086;2023-05-16T06:52:53;11.40;99.90
35445;DHT22;21562;49.476;6.086;2023-05-16T06:55:19;11.30;99.90
35445;DHT22;21562;49.476;6.086;2023-05-16T06:57:44;11.20;99.90
35445;DHT22;21562;49.476;6.086;2023-05-16T07:00:10;11.10;99.90
35445;DHT22;21562;49.476;6.086;2023-05-16T07:02:36;11.30;99.90
35445;DHT22;21562;49.476;6.086;2023-05-16T07:05:02;11.40;99.90
35445;DHT22;21562;49.476;6.086;2023-05-16T07:07:28;11.20;99.90
35445;DHT22;21562;49.476;6.086;2023-05-16T07:09:54;11.10;99.90
35445;DHT22;21562;49.476;6.086;2023-05-16T07:12:19;11.30;99.90
35445;DHT22;21562;49.476;6.086;2023-05-16T07:14:45;11.40;99.90
35445;DHT22;21562;49.476;6.086;2023-05-16T07:17:11;11.50;99.90
35445;DHT22;21562;49.476;6.086;2023-05-16T07:19:36;11.60;99.90
35445;DHT22;21562;49.476;6.086;2023-05-16T07:22:02;11.70;99.90
35445;DHT22;21562;49.476;6.086;2023-05-16T07:24:28;11.60;99.90
35445;DHT22;21562;49.476;6.086;2023-05-16T07:26:53;11.40;99.90
35445;DHT22;21562;49.476;6.086;2023-05-16T07:29:19;11.50;99.90
35445;DHT22;21562;49.476;6.086;2023-05-16T07:31:45;11.50;99.90
35445;DHT22;21562;49.476;6.086;2023-05-16T07:34:10;11.60;99.90
35445;DHT22;21562;49.476;6.086;2023-05-16T07:36:36;11.80;99.90
35445;DHT22;21562;49.476;6.086;2023-05-16T07:39:02;11.90;99.90
35445;DHT22;21562;49.476;6.086;2023-05-16T07:41:29;11.70;99.90
35445;DHT22;21562;49.476;6.086;2023-05-16T07:43:54;11.50;99.90
35445;DHT22;21562;49.476;6.086;2023-05-16T07:46:20;11.60;99.90
35445;DHT22;21562;49.476;6.086;2023-05-16T07:48:46;11.60;99.90
35445;DHT22;21562;49.476;6.086;2023-05-16T07:51:12;11.80;99.90
35445;DHT22;21562;49.476;6.086;2023-05-16T07:53:37;12.00;99.90
35445;DHT22;21562;49.476;6.086;2023-05-16T07:56:03;12.20;99.90
35445;DHT22;21562;49.476;6.086;2023-05-16T07:58:29;12.50;99.90
35445;DHT22;21562;49.476;6.086;2023-05-16T08:00:55;12.70;99.90
35445;DHT22;21562;49.476;6.086;2023-05-16T08:03:20;12.80;99.90
35445;DHT22;21562;49.476;6.086;2023-05-16T08:05:47;12.60;99.90
35445;DHT22;21562;49.476;6.086;2023-05-16T08:08:13;12.80;99.90
35445;DHT22;21562;49.476;6.086;2023-05-16T08:10:39;12.60;99.90
35445;DHT22;21562;49.476;6.086;2023-05-16T08:13:05;12.70;99.90
35445;DHT22;21562;49.476;6.086;2023-05-16T08:15:30;12.80;99.90
35445;DHT22;21562;49.476;6.086;2023-05-16T08:17:57;12.90;99.90
35445;DHT22;21562;49.476;6.086;2023-05-16T08:20:23;13.00;99.90
35445;DHT22;21562;49.476;6.086;2023-05-16T08:22:49;13.20;99.90
35445;DHT22;21562;49.476;6.086;2023-05-16T08:25:15;13.20;99.90
35445;DHT22;21562;49.476;6.086;2023-05-16T08:27:40;13.10;99.90
35445;DHT22;21562;49.476;6.086;2023-05-16T08:30:07;13.00;99.90
35445;DHT22;21562;49.476;6.086;2023-05-16T08:32:33;13.10;99.90
35445;DHT22;21562;49.476;6.086;2023-05-16T08:34:59;13.10;99.90
35445;DHT22;21562;49.476;6.086;2023-05-16T08:37:25;13.20;99.90
35445;DHT22;21562;49.476;6.086;2023-05-16T08:39:51;13.40;99.90
35445;DHT22;21562;49.476;6.086;2023-05-16T08:42:16;13.40;99.90
35445;DHT22;21562;49.476;6.086;2023-05-16T08:44:42;13.20;99.90
35445;DHT22;21562;49.476;6.086;2023-05-16T08:47:12;13.10;99.90
35445;DHT22;21562;49.476;6.086;2023-05-16T08:49:40;13.20;99.90
35445;DHT22;21562;49.476;6.086;2023-05-16T08:52:09;13.40;99.90
35445;DHT22;21562;49.476;6.086;2023-05-16T08:54:35;13.60;99.90
35445;DHT22;21562;49.476;6.086;2023-05-16T08:57:02;13.80;99.90
35445;DHT22;21562;49.476;6.086;2023-05-16T08:59:28;13.80;99.90
35445;DHT22;21562;49.476;6.086;2023-05-16T09:01:55;13.90;99.90
35445;DHT22;21562;49.476;6.086;2023-05-16T09:04:21;14.10;99.90
35445;DHT22;21562;49.476;6.086;2023-05-16T09:06:49;14.00;99.90
35445;DHT22;21562;49.476;6.086;2023-05-16T09:09:16;14.30;99.90
35445;DHT22;21562;49.476;6.086;2023-05-16T09:11:42;14.50;99.90
35445;DHT22;21562;49.476;6.086;2023-05-16T09:14:07;14.60;99.90
35445;DHT22;21562;49.476;6.086;2023-05-16T09:16:33;14.50;99.90
35445;DHT22;21562;49.476;6.086;2023-05-16T09:19:00;14.20;99.90
35445;DHT22;21562;49.476;6.086;2023-05-16T09:21:31;14.20;99.90
35445;DHT22;21562;49.476;6.086;2023-05-16T09:24:04;14.10;99.90
35445;DHT22;21562;49.476;6.086;2023-05-16T09:26:31;14.10;99.90
35445;DHT22;21562;49.476;6.086;2023-05-16T09:28:57;14.30;99.90
35445;DHT22;21562;49.476;6.086;2023-05-16T09:31:24;14.50;99.90
35445;DHT22;21562;49.476;6.086;2023-05-16T09:33:56;14.50;99.50
35445;DHT22;21562;49.476;6.086;2023-05-16T09:36:21;14.80;99.90
35445;DHT22;21562;49.476;6.086;2023-05-16T09:38:50;14.90;99.70
35445;DHT22;21562;49.476;6.086;2023-05-16T09:41:15;15.10;99.90
35445;DHT22;21562;49.476;6.086;2023-05-16T09:43:42;15.30;99.90
35445;DHT22;21562;49.476;6.086;2023-05-16T09:46:12;15.20;98.60
35445;DHT22;21562;49.476;6.086;2023-05-16T09:48:46;15.20;98.80
35445;DHT22;21562;49.476;6.086;2023-05-16T09:51:12;15.40;99.20
35445;DHT22;21562;49.476;6.086;2023-05-16T09:53:39;15.40;99.50
35445;DHT22;21562;49.476;6.086;2023-05-16T09:56:15;15.60;99.00
35445;DHT22;21562;49.476;6.086;2023-05-16T09:58:42;15.70;99.40
35445;DHT22;21562;49.476;6.086;2023-05-16T10:01:09;15.70;98.50
35445;DHT22;21562;49.476;6.086;2023-05-16T10:03:37;15.50;98.20
35445;DHT22;21562;49.476;6.086;2023-05-16T10:06:04;15.70;97.40
35445;DHT22;21562;49.476;6.086;2023-05-16T10:08:32;15.70;97.70
35445;DHT22;21562;49.476;6.086;2023-05-16T10:11:01;16.00;97.10
35445;DHT22;21562;49.476;6.086;2023-05-16T10:13:31;16.10;96.80
35445;DHT22;21562;49.476;6.086;2023-05-16T10:15:59;16.20;96.10
35445;DHT22;21562;49.476;6.086;2023-05-16T10:18:31;16.30;95.70
35445;DHT22;21562;49.476;6.086;2023-05-16T10:21:03;16.10;95.60
35445;DHT22;21562;49.476;6.086;2023-05-16T10:23:30;16.20;96.50
35445;DHT22;21562;49.476;6.086;2023-05-16T10:25:57;16.00;96.70
35445;DHT22;21562;49.476;6.086;2023-05-16T10:28:24;16.10;96.50
35445;DHT22;21562;49.476;6.086;2023-05-16T10:30:50;16.20;97.50
35445;DHT22;21562;49.476;6.086;2023-05-16T10:33:17;16.40;96.90
35445;DHT22;21562;49.476;6.086;2023-05-16T10:35:44;16.20;96.00
35445;DHT22;21562;49.476;6.086;2023-05-16T10:38:12;16.20;95.60
35445;DHT22;21562;49.476;6.086;2023-05-16T10:40:39;16.20;95.80
35445;DHT22;21562;49.476;6.086;2023-05-16T10:43:06;16.20;94.40
35445;DHT22;21562;49.476;6.086;2023-05-16T10:45:32;15.20;95.50
35445;DHT22;21562;49.476;6.086;2023-05-16T10:48:03;15.20;95.90
35445;DHT22;21562;49.476;6.086;2023-05-16T10:50:45;15.50;95.70
35445;DHT22;21562;49.476;6.086;2023-05-16T10:56:28;15.70;96.60
35445;DHT22;21562;49.476;6.086;2023-05-16T11:01:21;16.20;96.80
35445;DHT22;21562;49.476;6.086;2023-05-16T11:06:23;16.70;93.70
35445;DHT22;21562;49.476;6.086;2023-05-16T11:09:06;16.90;94.20
35445;DHT22;21562;49.476;6.086;2023-05-16T11:17:11;17.40;92.90
35445;DHT22;21562;49.476;6.086;2023-05-16T11:19:49;17.10;92.80
35445;DHT22;21562;49.476;6.086;2023-05-16T11:25:00;17.30;92.40
35445;DHT22;21562;49.476;6.086;2023-05-16T11:29:53;17.60;93.00
35445;DHT22;21562;49.476;6.086;2023-05-16T11:32:20;18.10;90.60
35445;DHT22;21562;49.476;6.086;2023-05-16T11:34:47;18.00;90.00
35445;DHT22;21562;49.476;6.086;2023-05-16T11:37:13;18.30;89.60
35445;DHT22;21562;49.476;6.086;2023-05-16T11:39:40;18.60;89.50
35445;DHT22;21562;49.476;6.086;2023-05-16T11:42:05;18.40;88.10
35445;DHT22;21562;49.476;6.086;2023-05-16T11:44:31;18.50;89.60
35445;DHT22;21562;49.476;6.086;2023-05-16T11:46:57;17.80;89.90
35445;DHT22;21562;49.476;6.086;2023-05-16T11:49:22;18.30;91.30
35445;DHT22;21562;49.476;6.086;2023-05-16T11:51:48;18.70;90.90
35445;DHT22;21562;49.476;6.086;2023-05-16T11:54:17;18.70;88.90
35445;DHT22;21562;49.476;6.086;2023-05-16T11:56:44;18.80;87.90
35445;DHT22;21562;49.476;6.086;2023-05-16T11:59:10;18.70;88.00
35445;DHT22;21562;49.476;6.086;2023-05-16T12:01:37;18.40;88.20
35445;DHT22;21562;49.476;6.086;2023-05-16T12:04:10;18.00;88.10
35445;DHT22;21562;49.476;6.086;2023-05-16T12:06:37;18.20;88.40
35445;DHT22;21562;49.476;6.086;2023-05-16T12:09:10;18.30;88.50
35445;DHT22;21562;49.476;6.086;2023-05-16T12:11:36;18.20;89.40
35445;DHT22;21562;49.476;6.086;2023-05-16T12:14:07;18.40;88.80
35445;DHT22;21562;49.476;6.086;2023-05-16T12:16:34;17.60;89.10
35445;DHT22;21562;49.476;6.086;2023-05-16T12:19:01;17.70;90.40
35445;DHT22;21562;49.476;6.086;2023-05-16T12:21:29;17.90;90.30
35445;DHT22;21562;49.476;6.086;2023-05-16T12:23:55;18.20;87.30
35445;DHT22;21562;49.476;6.086;2023-05-16T12:26:28;18.10;87.50
35445;DHT22;21562;49.476;6.086;2023-05-16T12:28:56;18.30;88.10
35445;DHT22;21562;49.476;6.086;2023-05-16T12:31:25;18.70;88.40
35445;DHT22;21562;49.476;6.086;2023-05-16T12:33:55;18.80;86.20
35445;DHT22;21562;49.476;6.086;2023-05-16T12:36:21;18.80;86.60
35445;DHT22;21562;49.476;6.086;2023-05-16T12:38:48;18.80;86.10
35445;DHT22;21562;49.476;6.086;2023-05-16T12:41:22;18.50;86.60
35445;DHT22;21562;49.476;6.086;2023-05-16T12:43:48;18.00;86.30
35445;DHT22;21562;49.476;6.086;2023-05-16T12:46:15;18.00;88.60
35445;DHT22;21562;49.476;6.086;2023-05-16T12:48:41;18.30;90.10
35445;DHT22;21562;49.476;6.086;2023-05-16T12:51:18;18.30;89.40
35445;DHT22;21562;49.476;6.086;2023-05-16T12:53:46;18.40;88.50
35445;DHT22;21562;49.476;6.086;2023-05-16T12:56:13;18.30;85.20
35445;DHT22;21562;49.476;6.086;2023-05-16T12:58:40;18.20;83.80
35445;DHT22;21562;49.476;6.086;2023-05-16T13:01:06;18.30;83.20
35445;DHT22;21562;49.476;6.086;2023-05-16T13:03:32;18.50;85.50
35445;DHT22;21562;49.476;6.086;2023-05-16T13:05:58;18.90;85.00
35445;DHT22;21562;49.476;6.086;2023-05-16T13:08:25;19.20;85.70
35445;DHT22;21562;49.476;6.086;2023-05-16T13:10:50;19.20;83.40
35445;DHT22;21562;49.476;6.086;2023-05-16T13:13:16;18.80;82.40
35445;DHT22;21562;49.476;6.086;2023-05-16T13:15:43;18.90;81.30
35445;DHT22;21562;49.476;6.086;2023-05-16T13:18:09;18.70;81.80
35445;DHT22;21562;49.476;6.086;2023-05-16T13:20:35;18.60;82.90
35445;DHT22;21562;49.476;6.086;2023-05-16T13:23:00;18.50;82.20
35445;DHT22;21562;49.476;6.086;2023-05-16T13:25:26;18.30;84.00
35445;DHT22;21562;49.476;6.086;2023-05-16T13:27:52;18.30;84.20
35445;DHT22;21562;49.476;6.086;2023-05-16T13:30:17;18.00;83.60
35445;DHT22;21562;49.476;6.086;2023-05-16T13:32:43;18.00;84.00
35445;DHT22;21562;49.476;6.086;2023-05-16T13:35:09;18.00;83.80
35445;DHT22;21562;49.476;6.086;2023-05-16T13:37:35;17.90;84.80
35445;DHT22;21562;49.476;6.086;2023-05-16T13:40:02;18.00;85.60
35445;DHT22;21562;49.476;6.086;2023-05-16T13:42:29;17.80;84.80
35445;DHT22;21562;49.476;6.086;2023-05-16T13:44:54;17.60;85.10
35445;DHT22;21562;49.476;6.086;2023-05-16T13:47:20;17.60;85.20
35445;DHT22;21562;49.476;6.086;2023-05-16T13:49:46;17.90;85.10
35445;DHT22;21562;49.476;6.086;2023-05-16T13:52:12;17.80;85.90
35445;DHT22;21562;49.476;6.086;2023-05-16T13:54:37;17.70;85.10
35445;DHT22;21562;49.476;6.086;2023-05-16T13:57:05;17.50;83.60
35445;DHT22;21562;49.476;6.086;2023-05-16T13:59:31;17.10;86.10
35445;DHT22;21562;49.476;6.086;2023-05-16T14:01:57;17.30;84.90
35445;DHT22;21562;49.476;6.086;2023-05-16T14:04:23;17.50;85.40
35445;DHT22;21562;49.476;6.086;2023-05-16T14:06:50;17.60;86.20
35445;DHT22;21562;49.476;6.086;2023-05-16T14:09:16;17.60;84.90
35445;DHT22;21562;49.476;6.086;2023-05-16T14:11:41;17.50;84.00
35445;DHT22;21562;49.476;6.086;2023-05-16T14:14:07;17.20;83.60
35445;DHT22;21562;49.476;6.086;2023-05-16T14:16:32;17.40;84.60
35445;DHT22;21562;49.476;6.086;2023-05-16T14:18:58;17.70;85.60
35445;DHT22;21562;49.476;6.086;2023-05-16T14:21:24;17.70;84.10
35445;DHT22;21562;49.476;6.086;2023-05-16T14:23:49;17.30;84.20
35445;DHT22;21562;49.476;6.086;2023-05-16T14:26:15;17.20;83.80
35445;DHT22;21562;49.476;6.086;2023-05-16T14:28:42;17.20;84.30
35445;DHT22;21562;49.476;6.086;2023-05-16T14:31:07;16.90;85.60
35445;DHT22;21562;49.476;6.086;2023-05-16T14:33:33;17.00;86.60
35445;DHT22;21562;49.476;6.086;2023-05-16T14:35:59;17.00;88.30
35445;DHT22;21562;49.476;6.086;2023-05-16T14:38:25;17.20;86.20
35445;DHT22;21562;49.476;6.086;2023-05-16T14:40:50;17.50;86.20
35445;DHT22;21562;49.476;6.086;2023-05-16T14:43:16;17.80;84.10
35445;DHT22;21562;49.476;6.086;2023-05-16T14:45:42;17.30;84.50
35445;DHT22;21562;49.476;6.086;2023-05-16T14:48:07;17.50;84.80
35445;DHT22;21562;49.476;6.086;2023-05-16T14:50:33;17.60;85.70
35445;DHT22;21562;49.476;6.086;2023-05-16T14:52:59;17.90;86.20
35445;DHT22;21562;49.476;6.086;2023-05-16T14:55:25;18.10;82.00
35445;DHT22;21562;49.476;6.086;2023-05-16T14:57:51;18.20;81.60
35445;DHT22;21562;49.476;6.086;2023-05-16T15:00:22;18.50;80.80
35445;DHT22;21562;49.476;6.086;2023-05-16T15:02:47;18.70;79.70
35445;DHT22;21562;49.476;6.086;2023-05-16T15:05:13;19.00;80.30
35445;DHT22;21562;49.476;6.086;2023-05-16T15:07:39;18.40;79.00
35445;DHT22;21562;49.476;6.086;2023-05-16T15:10:05;18.70;81.00
35445;DHT22;21562;49.476;6.086;2023-05-16T15:12:31;18.90;78.90
35445;DHT22;21562;49.476;6.086;2023-05-16T15:14:57;18.90;79.70
35445;DHT22;21562;49.476;6.086;2023-05-16T15:17:22;19.20;80.00
35445;DHT22;21562;49.476;6.086;2023-05-16T15:19:48;19.60;77.60
35445;DHT22;21562;49.476;6.086;2023-05-16T15:22:14;19.50;77.40
35445;DHT22;21562;49.476;6.086;2023-05-16T15:24:39;19.60;77.30
35445;DHT22;21562;49.476;6.086;2023-05-16T15:27:05;19.30;79.30
35445;DHT22;21562;49.476;6.086;2023-05-16T15:29:31;19.20;78.20
35445;DHT22;21562;49.476;6.086;2023-05-16T15:31:56;19.20;77.10
35445;DHT22;21562;49.476;6.086;2023-05-16T15:34:22;18.80;73.80
35445;DHT22;21562;49.476;6.086;2023-05-16T15:36:48;18.50;74.10
35445;DHT22;21562;49.476;6.086;2023-05-16T15:39:14;18.70;75.00
35445;DHT22;21562;49.476;6.086;2023-05-16T15:41:40;18.70;76.90
35445;DHT22;21562;49.476;6.086;2023-05-16T15:44:05;18.90;75.70
35445;DHT22;21562;49.476;6.086;2023-05-16T15:46:31;19.00;75.80
35445;DHT22;21562;49.476;6.086;2023-05-16T15:48:57;19.50;75.40
35445;DHT22;21562;49.476;6.086;2023-05-16T15:51:23;19.70;74.80
35445;DHT22;21562;49.476;6.086;2023-05-16T15:53:49;19.50;75.20